sensor_id;sensor_type;location;lat;lon;timestamp;temperature;humidity
12885;DHT22;6510;51.362;7.370;2023-06-14T00:00:51;16.70;99.90
12885;DHT22;6510;51.362;7.370;2023-06-14T00:03:21;16.70;99.90
12885;DHT22;6510;51.362;7.370;2023-06-14T00:05:48;16.70;99.90
12885;DHT22;6510;51.362;7.370;2023-06-14T00:08:14;16.60;99.90
12885;DHT22;6510;51.362;7.370;2023-06-14T00:10:40;16.50;99.90
12885;DHT22;6510;51.362;7.370;2023-06-14T00:13:08;16.60;99.90
12885;DHT22;6510;51.362;7.370;2023-06-14T00:15:34;16.50;99.90
12885;DHT22;6510;51.362;7.370;2023-06-14T00:18:00;16.40;99.90
12885;DHT22;6510;51.362;7.370;2023-06-14T00:20:29;16.40;99.90
12885;DHT22;6510;51.362;7.370;2023-06-14T00:23:02;16.30;99.90
12885;DHT22;6510;51.362;7.370;2023-06-14T00:25:28;16.20;99.90
12885;DHT22;6510;51.362;7.370;2023-06-14T00:27:54;16.20;99.90
12885;DHT22;6510;51.362;7.370;2023-06-14T00:30:21;16.20;99.90
12885;DHT22;6510;51.362;7.370;2023-06-14T00:32:47;16.10;99.90
12885;DHT22;6510;51.362;7.370;2023-06-14T00:35:13;16.10;99.90
12885;DHT22;6510;51.362;7.370;2023-06-14T00:37:39;16.20;99.90
12885;DHT22;6510;51.362;7.370;2023-06-14T00:40:05;16.20;99.90
12885;DHT22;6510;51.362;7.370;2023-06-14T00:42:31;16.20;99.90
12885;DHT22;6510;51.362;7.370;2023-06-14T00:44:57;16.20;99.90
12885;DHT22;6510;51.362;7.370;2023-06-14T00:47:23;16.20;99.90
12885;DHT22;6510;51.362;7.370;2023-06-14T00:49:50;16.30;99.90
12885;DHT22;6510;51.362;7.370;2023-06-14T00:52:19;16.30;99.90
12885;DHT22;6510;51.362;7.370;2023-06-14T00:54:45;16.30;99.90
12885;DHT22;6510;51.362;7.370;2023-06-14T00:57:12;16.30;99.90
12885;DHT22;6510;51.362;7.370;2023-06-14T00:59:44;16.20;99.90
12885;DHT22;6510;51.362;7.370;2023-06-14T01:02:11;16.20;99.90
12885;DHT22;6510;51.362;7.370;2023-06-14T01:04:38;16.10;99.90
12885;DHT22;6510;51.362;7.370;2023-06-14T01:07:36;15.90;99.90
12885;DHT22;6510;51.362;7.370;2023-06-14T01:15:20;15.60;99.90
12885;DHT22;6510;51.362;7.370;2023-06-14T01:17:49;15.60;99.90
12885;DHT22;6510;51.362;7.370;2023-06-14T01:20:17;15.60;99.90
12885;DHT22;6510;51.362;7.370;2023-06-14T01:22:55;15.60;99.90
12885;DHT22;6510;51.362;7.370;2023-06-14T01:25:21;15.60;99.90
12885;DHT22;6510;51.362;7.370;2023-06-14T01:27:49;15.60;99.90
12885;DHT22;6510;51.362;7.370;2023-06-14T01:30:17;15.60;99.90
12885;DHT22;6510;51.362;7.370;2023-06-14T01:32:44;15.70;99.90
12885;DHT22;6510;51.362;7.370;2023-06-14T01:35:11;15.80;99.90
12885;DHT22;6510;51.362;7.370;2023-06-14T01:37:39;15.80;99.90
12885;DHT22;6510;51.362;7.370;2023-06-14T01:40:07;15.90;99.90
12885;DHT22;6510;51.362;7.370;2023-06-14T01:42:38;15.90;99.90
12885;DHT22;6510;51.362;7.370;2023-06-14T01:45:05;15.90;99.90
12885;DHT22;6510;51.362;7.370;2023-06-14T01:47:34;15.80;99.90
12885;DHT22;6510;51.362;7.370;2023-06-14T01:50:02;15.80;99.90
12885;DHT22;6510;51.362;7.370;2023-06-14T01:52:28;15.80;99.90
12885;DHT22;6510;51.362;7.370;2023-06-14T01:54:53;15.70;99.90
12885;DHT22;6510;51.362;7.370;2023-06-14T01:57:19;15.70;99.90
12885;DHT22;6510;51.362;7.370;2023-06-14T01:59:46;15.60;99.90
12885;DHT22;6510;51.362;7.370;2023-06-14T02:02:14;15.60;99.90
12885;DHT22;6510;51.362;7.370;2023-06-14T02:04:40;15.50;99.90
12885;DHT22;6510;51.362;7.370;2023-06-14T02:07:06;15.50;99.90
12885;DHT22;6510;51.362;7.370;2023-06-14T02:09:31;15.40;99.90
12885;DHT22;6510;51.362;7.370;2023-06-14T02:11:57;15.40;99.90
12885;DHT22;6510;51.362;7.370;2023-06-14T02:14:23;15.40;99.90
12885;DHT22;6510;51.362;7.370;2023-06-14T02:16:48;15.30;99.90
12885;DHT22;6510;51.362;7.370;2023-06-14T02:19:15;15.30;99.90
12885;DHT22;6510;51.362;7.370;2023-06-14T02:21:42;15.20;99.90
12885;DHT22;6510;51.362;7.370;2023-06-14T02:24:08;15.10;99.90
12885;DHT22;6510;51.362;7.370;2023-06-14T02:26:33;15.10;99.90
12885;DHT22;6510;51.362;7.370;2023-06-14T02:28:59;15.10;99.90
12885;DHT22;6510;51.362;7.370;2023-06-14T02:31:25;15.10;99.90
12885;DHT22;6510;51.362;7.370;2023-06-14T02:33:51;15.10;99.90
12885;DHT22;6510;51.362;7.370;2023-06-14T02:36:16;15.00;99.90
12885;DHT22;6510;51.362;7.370;2023-06-14T02:38:42;15.00;99.90
12885;DHT22;6510;51.362;7.370;2023-06-14T02:41:07;15.00;99.90
12885;DHT22;6510;51.362;7.370;2023-06-14T02:43:33;14.90;99.90
12885;DHT22;6510;51.362;7.370;2023-06-14T02:45:59;14.90;99.90
12885;DHT22;6510;51.362;7.370;2023-06-14T02:48:24;14.90;99.90
12885;DHT22;6510;51.362;7.370;2023-06-14T02:50:50;14.90;99.90
12885;DHT22;6510;51.362;7.370;2023-06-14T02:53:16;14.90;99.90
12885;DHT22;6510;51.362;7.370;2023-06-14T02:55:42;14.90;99.90
12885;DHT22;6510;51.362;7.370;2023-06-14T02:58:08;14.80;99.90
12885;DHT22;6510;51.362;7.370;2023-06-14T03:00:34;14.70;99.90
12885;DHT22;6510;51.362;7.370;2023-06-14T03:03:00;14.70;99.90
12885;DHT22;6510;51.362;7.370;2023-06-14T03:05:27;14.70;99.90
12885;DHT22;6510;51.362;7.370;2023-06-14T03:07:53;14.60;99.90
12885;DHT22;6510;51.362;7.370;2023-06-14T03:10:20;14.60;99.90
12885;DHT22;6510;51.362;7.370;2023-06-14T03:12:47;14.60;99.90
12885;DHT22;6510;51.362;7.370;2023-06-14T03:15:13;14.50;99.90
12885;DHT22;6510;51.362;7.370;2023-06-14T03:17:39;14.50;99.90
12885;DHT22;6510;51.362;7.370;2023-06-14T03:20:05;14.50;99.90
12885;DHT22;6510;51.362;7.370;2023-06-14T03:22:31;14.50;99.90
12885;DHT22;6510;51.362;7.370;2023-06-14T03:24:59;14.40;99.90
12885;DHT22;6510;51.362;7.370;2023-06-14T03:27:25;14.40;99.90
12885;DHT22;6510;51.362;7.370;2023-06-14T03:29:53;14.40;99.90
12885;DHT22;6510;51.362;7.370;2023-06-14T03:32:19;14.40;99.90
12885;DHT22;6510;51.362;7.370;2023-06-14T03:34:45;14.40;99.90
12885;DHT22;6510;51.362;7.370;2023-06-14T03:37:11;14.40;99.90
12885;DHT22;6510;51.362;7.370;2023-06-14T03:39:37;14.40;99.90
12885;DHT22;6510;51.362;7.370;2023-06-14T03:42:03;14.50;99.90
12885;DHT22;6510;51.362;7.370;2023-06-14T03:44:29;14.50;99.90
12885;DHT22;6510;51.362;7.370;2023-06-14T03:46:54;14.50;99.90
12885;DHT22;6510;51.362;7.370;2023-06-14T03:49:20;14.50;99.90
12885;DHT22;6510;51.362;7.370;2023-06-14T03:51:46;14.60;99.90
12885;DHT22;6510;51.362;7.370;2023-06-14T03:54:16;14.60;99.90
12885;DHT22;6510;51.362;7.370;2023-06-14T03:56:42;14.50;99.90
12885;DHT22;6510;51.362;7.370;2023-06-14T03:59:07;14.50;99.90
12885;DHT22;6510;51.362;7.370;2023-06-14T04:01:33;14.40;99.90
12885;DHT22;6510;51.362;7.370;2023-06-14T04:03:59;14.40;99.90
12885;DHT22;6510;51.362;7.370;2023-06-14T04:06:25;14.40;99.90
12885;DHT22;6510;51.362;7.370;2023-06-14T04:08:58;14.40;99.90
12885;DHT22;6510;51.362;7.370;2023-06-14T04:11:26;14.40;99.90
12885;DHT22;6510;51.362;7.370;2023-06-14T04:13:52;14.50;99.90
12885;DHT22;6510;51.362;7.370;2023-06-14T04:16:19;14.50;99.90
12885;DHT22;6510;51.362;7.370;2023-06-14T04:18:45;14.60;99.90
12885;DHT22;6510;51.362;7.370;2023-06-14T04:21:12;14.60;99.90
12885;DHT22;6510;51.362;7.370;2023-06-14T04:23:37;14.70;99.90
12885;DHT22;6510;51.362;7.370;2023-06-14T04:26:03;14.70;99.90
12885;DHT22;6510;51.362;7.370;2023-06-14T04:28:30;14.80;99.90
12885;DHT22;6510;51.362;7.370;2023-06-14T04:30:55;14.80;99.90
12885;DHT22;6510;51.362;7.370;2023-06-14T04:33:21;14.90;99.90
12885;DHT22;6510;51.362;7.370;2023-06-14T04:35:50;14.90;99.90
12885;DHT22;6510;51.362;7.370;2023-06-14T04:38:19;15.00;99.90
12885;DHT22;6510;51.362;7.370;2023-06-14T04:40:49;15.00;99.90
12885;DHT22;6510;51.362;7.370;2023-06-14T04:43:18;15.10;99.90
12885;DHT22;6510;51.362;7.370;2023-06-14T04:45:50;15.10;99.90
12885;DHT22;6510;51.362;7.370;2023-06-14T04:48:17;15.20;99.90
12885;DHT22;6510;51.362;7.370;2023-06-14T04:50:44;15.20;99.90
12885;DHT22;6510;51.362;7.370;2023-06-14T04:53:10;15.30;99.90
12885;DHT22;6510;51.362;7.370;2023-06-14T04:55:36;15.40;99.90
12885;DHT22;6510;51.362;7.370;2023-06-14T04:58:02;15.50;99.90
12885;DHT22;6510;51.362;7.370;2023-06-14T05:00:28;15.60;99.90
12885;DHT22;6510;51.362;7.370;2023-06-14T05:02:55;15.70;99.90
12885;DHT22;6510;51.362;7.370;2023-06-14T05:05:22;16.30;99.90
12885;DHT22;6510;51.362;7.370;2023-06-14T05:07:48;17.10;99.90
12885;DHT22;6510;51.362;7.370;2023-06-14T05:10:13;17.90;99.90
12885;DHT22;6510;51.362;7.370;2023-06-14T05:12:39;18.70;99.70
12885;DHT22;6510;51.362;7.370;2023-06-14T05:15:05;19.30;98.30
12885;DHT22;6510;51.362;7.370;2023-06-14T05:17:31;19.70;97.30
12885;DHT22;6510;51.362;7.370;2023-06-14T05:19:56;20.20;96.90
12885;DHT22;6510;51.362;7.370;2023-06-14T05:22:22;20.70;95.70
12885;DHT22;6510;51.362;7.370;2023-06-14T05:24:48;21.00;94.30
12885;DHT22;6510;51.362;7.370;2023-06-14T05:27:13;21.50;93.00
12885;DHT22;6510;51.362;7.370;2023-06-14T05:29:39;21.80;92.00
12885;DHT22;6510;51.362;7.370;2023-06-14T05:32:05;22.00;91.20
12885;DHT22;6510;51.362;7.370;2023-06-14T05:34:31;22.00;90.80
12885;DHT22;6510;51.362;7.370;2023-06-14T05:36:57;22.20;90.10
12885;DHT22;6510;51.362;7.370;2023-06-14T05:39:22;21.90;90.20
12885;DHT22;6510;51.362;7.370;2023-06-14T05:41:49;21.90;91.00
12885;DHT22;6510;51.362;7.370;2023-06-14T05:44:15;21.90;89.10
12885;DHT22;6510;51.362;7.370;2023-06-14T05:46:41;22.20;90.00
12885;DHT22;6510;51.362;7.370;2023-06-14T05:49:06;22.40;87.90
12885;DHT22;6510;51.362;7.370;2023-06-14T05:51:32;22.30;88.20
12885;DHT22;6510;51.362;7.370;2023-06-14T05:53:57;22.50;88.10
12885;DHT22;6510;51.362;7.370;2023-06-14T05:56:23;22.80;84.70
12885;DHT22;6510;51.362;7.370;2023-06-14T05:58:49;22.60;85.70
12885;DHT22;6510;51.362;7.370;2023-06-14T06:01:15;22.70;85.90
12885;DHT22;6510;51.362;7.370;2023-06-14T06:03:41;22.70;83.60
12885;DHT22;6510;51.362;7.370;2023-06-14T06:06:11;23.10;84.10
12885;DHT22;6510;51.362;7.370;2023-06-14T06:08:37;23.60;81.70
12885;DHT22;6510;51.362;7.370;2023-06-14T06:11:02;24.10;81.20
12885;DHT22;6510;51.362;7.370;2023-06-14T06:13:28;24.60;79.20
12885;DHT22;6510;51.362;7.370;2023-06-14T06:15:53;24.80;77.60
12885;DHT22;6510;51.362;7.370;2023-06-14T06:18:19;24.80;78.40
12885;DHT22;6510;51.362;7.370;2023-06-14T06:20:44;24.70;77.30
12885;DHT22;6510;51.362;7.370;2023-06-14T06:23:12;24.70;77.00
12885;DHT22;6510;51.362;7.370;2023-06-14T06:25:38;24.50;77.50
12885;DHT22;6510;51.362;7.370;2023-06-14T06:28:04;24.30;77.00
12885;DHT22;6510;51.362;7.370;2023-06-14T06:30:29;23.50;79.10
12885;DHT22;6510;51.362;7.370;2023-06-14T06:32:55;23.60;79.00
12885;DHT22;6510;51.362;7.370;2023-06-14T06:35:23;23.90;81.20
12885;DHT22;6510;51.362;7.370;2023-06-14T06:37:49;24.80;78.30
12885;DHT22;6510;51.362;7.370;2023-06-14T06:40:15;25.50;76.60
12885;DHT22;6510;51.362;7.370;2023-06-14T06:42:41;25.80;75.80
12885;DHT22;6510;51.362;7.370;2023-06-14T06:45:07;26.30;73.70
12885;DHT22;6510;51.362;7.370;2023-06-14T06:47:33;26.80;74.50
12885;DHT22;6510;51.362;7.370;2023-06-14T06:49:58;27.40;72.30
12885;DHT22;6510;51.362;7.370;2023-06-14T06:52:24;26.90;71.80
12885;DHT22;6510;51.362;7.370;2023-06-14T06:54:49;27.30;71.10
12885;DHT22;6510;51.362;7.370;2023-06-14T06:57:16;27.70;71.20
12885;DHT22;6510;51.362;7.370;2023-06-14T06:59:41;27.20;68.90
12885;DHT22;6510;51.362;7.370;2023-06-14T07:02:07;27.50;70.60
12885;DHT22;6510;51.362;7.370;2023-06-14T07:04:32;27.60;70.60
12885;DHT22;6510;51.362;7.370;2023-06-14T07:06:58;27.80;68.60
12885;DHT22;6510;51.362;7.370;2023-06-14T07:09:24;27.30;69.50
12885;DHT22;6510;51.362;7.370;2023-06-14T07:11:49;27.90;67.40
12885;DHT22;6510;51.362;7.370;2023-06-14T07:14:15;28.00;69.70
12885;DHT22;6510;51.362;7.370;2023-06-14T07:16:41;28.40;66.10
12885;DHT22;6510;51.362;7.370;2023-06-14T07:19:08;28.30;67.20
12885;DHT22;6510;51.362;7.370;2023-06-14T07:21:34;28.70;66.60
12885;DHT22;6510;51.362;7.370;2023-06-14T07:24:00;29.20;65.40
12885;DHT22;6510;51.362;7.370;2023-06-14T07:26:26;28.60;63.80
12885;DHT22;6510;51.362;7.370;2023-06-14T07:28:52;28.50;65.50
12885;DHT22;6510;51.362;7.370;2023-06-14T07:31:18;28.60;64.60
12885;DHT22;6510;51.362;7.370;2023-06-14T07:33:44;28.60;63.30
12885;DHT22;6510;51.362;7.370;2023-06-14T07:36:10;28.70;66.10
12885;DHT22;6510;51.362;7.370;2023-06-14T07:38:36;29.00;64.80
12885;DHT22;6510;51.362;7.370;2023-06-14T07:41:02;28.90;64.00
12885;DHT22;6510;51.362;7.370;2023-06-14T07:43:28;29.20;64.80
12885;DHT22;6510;51.362;7.370;2023-06-14T07:45:53;29.10;64.70
12885;DHT22;6510;51.362;7.370;2023-06-14T07:48:19;29.40;64.20
12885;DHT22;6510;51.362;7.370;2023-06-14T07:50:44;29.70;64.90
12885;DHT22;6510;51.362;7.370;2023-06-14T07:53:10;30.10;62.30
12885;DHT22;6510;51.362;7.370;2023-06-14T07:55:36;29.40;63.60
12885;DHT22;6510;51.362;7.370;2023-06-14T07:58:06;29.20;64.60
12885;DHT22;6510;51.362;7.370;2023-06-14T08:00:31;29.70;64.30
12885;DHT22;6510;51.362;7.370;2023-06-14T08:02:57;29.80;62.30
12885;DHT22;6510;51.362;7.370;2023-06-14T08:05:25;29.10;62.10
12885;DHT22;6510;51.362;7.370;2023-06-14T08:07:53;29.80;63.50
12885;DHT22;6510;51.362;7.370;2023-06-14T08:10:20;30.20;62.20
12885;DHT22;6510;51.362;7.370;2023-06-14T08:12:45;30.10;62.80
12885;DHT22;6510;51.362;7.370;2023-06-14T08:15:11;29.70;63.30
12885;DHT22;6510;51.362;7.370;2023-06-14T08:17:38;30.00;60.80
12885;DHT22;6510;51.362;7.370;2023-06-14T08:20:04;29.10;61.20
12885;DHT22;6510;51.362;7.370;2023-06-14T08:22:31;29.70;61.00
12885;DHT22;6510;51.362;7.370;2023-06-14T08:24:59;30.70;58.70
12885;DHT22;6510;51.362;7.370;2023-06-14T08:27:26;31.10;59.70
12885;DHT22;6510;51.362;7.370;2023-06-14T08:29:52;31.00;58.40
12885;DHT22;6510;51.362;7.370;2023-06-14T08:32:17;30.00;57.70
12885;DHT22;6510;51.362;7.370;2023-06-14T08:34:43;30.30;59.70
12885;DHT22;6510;51.362;7.370;2023-06-14T08:37:11;30.90;58.00
12885;DHT22;6510;51.362;7.370;2023-06-14T08:39:37;31.80;58.20
12885;DHT22;6510;51.362;7.370;2023-06-14T08:42:03;32.20;55.30
12885;DHT22;6510;51.362;7.370;2023-06-14T08:44:30;32.70;54.70
12885;DHT22;6510;51.362;7.370;2023-06-14T08:46:59;31.60;53.50
12885;DHT22;6510;51.362;7.370;2023-06-14T08:49:26;31.60;54.50
12885;DHT22;6510;51.362;7.370;2023-06-14T08:51:59;31.80;53.00
12885;DHT22;6510;51.362;7.370;2023-06-14T08:54:28;32.50;54.50
12885;DHT22;6510;51.362;7.370;2023-06-14T08:56:56;33.10;53.50
12885;DHT22;6510;51.362;7.370;2023-06-14T08:59:26;32.50;54.00
12885;DHT22;6510;51.362;7.370;2023-06-14T09:01:54;32.50;54.50
12885;DHT22;6510;51.362;7.370;2023-06-14T09:04:23;32.20;54.00
12885;DHT22;6510;51.362;7.370;2023-06-14T09:06:51;32.20;55.80
12885;DHT22;6510;51.362;7.370;2023-06-14T09:09:20;32.60;55.10
12885;DHT22;6510;51.362;7.370;2023-06-14T09:11:46;32.80;53.60
12885;DHT22;6510;51.362;7.370;2023-06-14T09:14:12;32.50;54.20
12885;DHT22;6510;51.362;7.370;2023-06-14T09:16:38;31.90;52.80
12885;DHT22;6510;51.362;7.370;2023-06-14T09:19:04;32.70;53.20
12885;DHT22;6510;51.362;7.370;2023-06-14T09:21:34;33.00;53.30
12885;DHT22;6510;51.362;7.370;2023-06-14T09:23:59;32.60;54.40
12885;DHT22;6510;51.362;7.370;2023-06-14T09:26:25;32.60;53.80
12885;DHT22;6510;51.362;7.370;2023-06-14T09:28:53;33.30;53.60
12885;DHT22;6510;51.362;7.370;2023-06-14T09:31:20;34.30;54.20
12885;DHT22;6510;51.362;7.370;2023-06-14T09:33:49;34.20;53.80
12885;DHT22;6510;51.362;7.370;2023-06-14T09:36:21;34.00;53.80
12885;DHT22;6510;51.362;7.370;2023-06-14T09:38:58;34.10;55.20
12885;DHT22;6510;51.362;7.370;2023-06-14T09:41:38;34.40;53.20
12885;DHT22;6510;51.362;7.370;2023-06-14T09:44:09;33.90;52.30
12885;DHT22;6510;51.362;7.370;2023-06-14T09:46:35;33.10;54.10
12885;DHT22;6510;51.362;7.370;2023-06-14T09:49:03;33.80;54.10
12885;DHT22;6510;51.362;7.370;2023-06-14T09:51:29;33.50;54.30
12885;DHT22;6510;51.362;7.370;2023-06-14T09:54:02;34.00;53.20
12885;DHT22;6510;51.362;7.370;2023-06-14T09:56:36;32.70;53.60
12885;DHT22;6510;51.362;7.370;2023-06-14T09:59:04;33.70;53.50
12885;DHT22;6510;51.362;7.370;2023-06-14T10:01:31;33.60;53.70
12885;DHT22;6510;51.362;7.370;2023-06-14T10:04:02;33.70;53.50
12885;DHT22;6510;51.362;7.370;2023-06-14T10:06:29;32.60;53.90
12885;DHT22;6510;51.362;7.370;2023-06-14T10:08:58;33.70;53.00
12885;DHT22;6510;51.362;7.370;2023-06-14T10:11:28;33.80;55.00
12885;DHT22;6510;51.362;7.370;2023-06-14T10:13:55;34.80;53.90
12885;DHT22;6510;51.362;7.370;2023-06-14T10:18:59;36.80;52.10
12885;DHT22;6510;51.362;7.370;2023-06-14T10:21:37;36.20;49.00
12885;DHT22;6510;51.362;7.370;2023-06-14T10:24:09;34.80;52.80
12885;DHT22;6510;51.362;7.370;2023-06-14T10:26:59;35.10;51.00
12885;DHT22;6510;51.362;7.370;2023-06-14T10:29:28;35.20;51.30
12885;DHT22;6510;51.362;7.370;2023-06-14T10:31:58;35.50;52.50
12885;DHT22;6510;51.362;7.370;2023-06-14T10:34:25;35.60;52.00
12885;DHT22;6510;51.362;7.370;2023-06-14T10:37:12;36.10;52.00
12885;DHT22;6510;51.362;7.370;2023-06-14T10:39:45;36.30;50.70
12885;DHT22;6510;51.362;7.370;2023-06-14T10:42:11;36.40;52.50
12885;DHT22;6510;51.362;7.370;2023-06-14T10:44:41;36.30;51.40
12885;DHT22;6510;51.362;7.370;2023-06-14T10:47:27;35.60;51.50
12885;DHT22;6510;51.362;7.370;2023-06-14T10:49:54;36.30;53.20
12885;DHT22;6510;51.362;7.370;2023-06-14T10:52:25;36.20;51.00
12885;DHT22;6510;51.362;7.370;2023-06-14T10:57:37;36.00;52.90
12885;DHT22;6510;51.362;7.370;2023-06-14T11:00:05;36.60;50.00
12885;DHT22;6510;51.362;7.370;2023-06-14T11:02:49;37.10;50.20
12885;DHT22;6510;51.362;7.370;2023-06-14T11:05:25;36.70;49.80
12885;DHT22;6510;51.362;7.370;2023-06-14T11:13:08;35.00;52.90
12885;DHT22;6510;51.362;7.370;2023-06-14T11:15:36;35.80;50.80
12885;DHT22;6510;51.362;7.370;2023-06-14T11:18:04;34.70;51.50
12885;DHT22;6510;51.362;7.370;2023-06-14T11:20:31;33.30;52.90
12885;DHT22;6510;51.362;7.370;2023-06-14T11:22:57;34.50;55.50
12885;DHT22;6510;51.362;7.370;2023-06-14T11:25:24;35.90;52.00
12885;DHT22;6510;51.362;7.370;2023-06-14T11:27:52;35.50;52.90
12885;DHT22;6510;51.362;7.370;2023-06-14T11:30:18;35.80;51.30
12885;DHT22;6510;51.362;7.370;2023-06-14T11:32:50;36.20;50.60
12885;DHT22;6510;51.362;7.370;2023-06-14T11:35:18;36.00;52.10
12885;DHT22;6510;51.362;7.370;2023-06-14T11:37:44;36.30;52.30
12885;DHT22;6510;51.362;7.370;2023-06-14T11:40:11;36.90;51.50
12885;DHT22;6510;51.362;7.370;2023-06-14T11:42:38;36.80;50.20
12885;DHT22;6510;51.362;7.370;2023-06-14T11:45:07;35.80;50.00
12885;DHT22;6510;51.362;7.370;2023-06-14T11:47:33;36.60;50.60
12885;DHT22;6510;51.362;7.370;2023-06-14T11:50:03;36.10;50.60
12885;DHT22;6510;51.362;7.370;2023-06-14T11:52:30;36.00;51.30
12885;DHT22;6510;51.362;7.370;2023-06-14T11:54:57;36.50;49.70
12885;DHT22;6510;51.362;7.370;2023-06-14T11:57:23;37.10;51.20
12885;DHT22;6510;51.362;7.370;2023-06-14T11:59:49;36.00;50.50
12885;DHT22;6510;51.362;7.370;2023-06-14T12:02:16;36.70;50.90
12885;DHT22;6510;51.362;7.370;2023-06-14T12:04:42;37.80;50.90
12885;DHT22;6510;51.362;7.370;2023-06-14T12:07:12;36.90;50.10
12885;DHT22;6510;51.362;7.370;2023-06-14T12:09:41;37.60;49.60
12885;DHT22;6510;51.362;7.370;2023-06-14T12:12:10;36.30;50.80
12885;DHT22;6510;51.362;7.370;2023-06-14T12:14:36;35.60;51.20
12885;DHT22;6510;51.362;7.370;2023-06-14T12:17:06;35.10;50.00
12885;DHT22;6510;51.362;7.370;2023-06-14T12:19:42;35.70;52.10
12885;DHT22;6510;51.362;7.370;2023-06-14T12:22:12;36.90;51.10
12885;DHT22;6510;51.362;7.370;2023-06-14T12:24:38;37.80;50.40
12885;DHT22;6510;51.362;7.370;2023-06-14T12:27:05;38.20;48.30
12885;DHT22;6510;51.362;7.370;2023-06-14T12:29:31;35.60;49.90
12885;DHT22;6510;51.362;7.370;2023-06-14T12:31:57;36.50;50.80
12885;DHT22;6510;51.362;7.370;2023-06-14T12:34:23;36.50;50.00
12885;DHT22;6510;51.362;7.370;2023-06-14T12:36:53;37.10;50.40
12885;DHT22;6510;51.362;7.370;2023-06-14T12:39:19;36.90;50.90
12885;DHT22;6510;51.362;7.370;2023-06-14T12:41:45;36.90;48.10
12885;DHT22;6510;51.362;7.370;2023-06-14T12:44:14;37.80;49.90
12885;DHT22;6510;51.362;7.370;2023-06-14T12:46:43;37.60;47.70
12885;DHT22;6510;51.362;7.370;2023-06-14T12:49:10;37.20;48.50
12885;DHT22;6510;51.362;7.370;2023-06-14T12:51:37;37.20;49.60
12885;DHT22;6510;51.362;7.370;2023-06-14T12:54:03;38.00;47.40
12885;DHT22;6510;51.362;7.370;2023-06-14T12:56:29;37.20;48.70
12885;DHT22;6510;51.362;7.370;2023-06-14T12:58:54;38.50;48.30
12885;DHT22;6510;51.362;7.370;2023-06-14T13:01:20;37.40;47.20
12885;DHT22;6510;51.362;7.370;2023-06-14T13:03:47;34.00;50.40
12885;DHT22;6510;51.362;7.370;2023-06-14T13:06:13;34.50;51.10
12885;DHT22;6510;51.362;7.370;2023-06-14T13:08:39;35.70;51.50
12885;DHT22;6510;51.362;7.370;2023-06-14T13:11:04;35.90;50.10
12885;DHT22;6510;51.362;7.370;2023-06-14T13:13:30;36.20;50.80
12885;DHT22;6510;51.362;7.370;2023-06-14T13:15:55;35.60;48.80
12885;DHT22;6510;51.362;7.370;2023-06-14T13:18:21;36.70;50.80
12885;DHT22;6510;51.362;7.370;2023-06-14T13:20:47;37.40;48.80
12885;DHT22;6510;51.362;7.370;2023-06-14T13:23:13;37.30;48.00
12885;DHT22;6510;51.362;7.370;2023-06-14T13:25:39;37.10;49.80
12885;DHT22;6510;51.362;7.370;2023-06-14T13:28:05;37.10;47.20
12885;DHT22;6510;51.362;7.370;2023-06-14T13:30:32;35.60;48.10
12885;DHT22;6510;51.362;7.370;2023-06-14T13:32:58;34.30;51.90
12885;DHT22;6510;51.362;7.370;2023-06-14T13:35:24;34.20;51.50
12885;DHT22;6510;51.362;7.370;2023-06-14T13:37:50;35.30;51.20
12885;DHT22;6510;51.362;7.370;2023-06-14T13:40:16;35.10;50.80
12885;DHT22;6510;51.362;7.370;2023-06-14T13:42:42;35.40;50.60
12885;DHT22;6510;51.362;7.370;2023-06-14T13:45:09;35.60;50.90
12885;DHT22;6510;51.362;7.370;2023-06-14T13:47:35;36.00;49.80
12885;DHT22;6510;51.362;7.370;2023-06-14T13:50:01;36.00;49.20
12885;DHT22;6510;51.362;7.370;2023-06-14T13:52:27;36.20;49.40
12885;DHT22;6510;51.362;7.370;2023-06-14T13:54:53;36.50;48.50
12885;DHT22;6510;51.362;7.370;2023-06-14T13:57:20;35.60;48.30
12885;DHT22;6510;51.362;7.370;2023-06-14T13:59:45;33.20;50.30
12885;DHT22;6510;51.362;7.370;2023-06-14T14:02:12;31.40;53.70
12885;DHT22;6510;51.362;7.370;2023-06-14T14:04:38;31.60;54.80
12885;DHT22;6510;51.362;7.370;2023-06-14T14:07:05;32.60;52.90
12885;DHT22;6510;51.362;7.370;2023-06-14T14:09:31;32.30;53.00
12885;DHT22;6510;51.362;7.370;2023-06-14T14:11:58;31.20;53.70
12885;DHT22;6510;51.362;7.370;2023-06-14T14:14:24;30.20;55.20
12885;DHT22;6510;51.362;7.370;2023-06-14T14:16:50;30.00;55.50
12885;DHT22;6510;51.362;7.370;2023-06-14T14:19:20;29.80;55.80
12885;DHT22;6510;51.362;7.370;2023-06-14T14:21:46;29.60;55.90
12885;DHT22;6510;51.362;7.370;2023-06-14T14:24:12;29.30;56.60
12885;DHT22;6510;51.362;7.370;2023-06-14T14:26:37;28.60;55.90
12885;DHT22;6510;51.362;7.370;2023-06-14T14:29:03;27.60;58.60
12885;DHT22;6510;51.362;7.370;2023-06-14T14:31:28;27.70;59.70
12885;DHT22;6510;51.362;7.370;2023-06-14T14:33:54;27.50;58.80
12885;DHT22;6510;51.362;7.370;2023-06-14T14:36:20;27.40;59.90
12885;DHT22;6510;51.362;7.370;2023-06-14T14:38:45;27.70;57.90
12885;DHT22;6510;51.362;7.370;2023-06-14T14:41:12;28.00;61.10
12885;DHT22;6510;51.362;7.370;2023-06-14T14:43:38;28.10;59.00
12885;DHT22;6510;51.362;7.370;2023-06-14T14:46:04;28.00;58.00
12885;DHT22;6510;51.362;7.370;2023-06-14T14:48:29;27.90;58.80
12885;DHT22;6510;51.362;7.370;2023-06-14T14:50:55;27.70;58.80
12885;DHT22;6510;51.362;7.370;2023-06-14T14:53:21;27.70;59.40
12885;DHT22;6510;51.362;7.370;2023-06-14T14:55:46;27.70;59.40
12885;DHT22;6510;51.362;7.370;2023-06-14T14:58:12;28.10;60.00
12885;DHT22;6510;51.362;7.370;2023-06-14T15:00:38;28.00;58.60
12885;DHT22;6510;51.362;7.370;2023-06-14T15:03:04;27.50;60.00
12885;DHT22;6510;51.362;7.370;2023-06-14T15:05:30;27.00;59.50
12885;DHT22;6510;51.362;7.370;2023-06-14T15:07:55;26.60;60.30
12885;DHT22;6510;51.362;7.370;2023-06-14T15:10:21;26.50;61.00
12885;DHT22;6510;51.362;7.370;2023-06-14T15:12:46;26.80;61.10
12885;DHT22;6510;51.362;7.370;2023-06-14T15:15:12;26.90;59.90
12885;DHT22;6510;51.362;7.370;2023-06-14T15:17:38;26.90;61.50
12885;DHT22;6510;51.362;7.370;2023-06-14T15:20:04;27.10;60.70
12885;DHT22;6510;51.362;7.370;2023-06-14T15:22:31;27.20;60.00
12885;DHT22;6510;51.362;7.370;2023-06-14T15:24:57;27.10;59.00
12885;DHT22;6510;51.362;7.370;2023-06-14T15:27:22;26.60;61.30
12885;DHT22;6510;51.362;7.370;2023-06-14T15:29:48;26.70;61.60
12885;DHT22;6510;51.362;7.370;2023-06-14T15:32:14;26.40;60.30
12885;DHT22;6510;51.362;7.370;2023-06-14T15:34:39;26.10;61.30
12885;DHT22;6510;51.362;7.370;2023-06-14T15:37:06;25.90;61.00
12885;DHT22;6510;51.362;7.370;2023-06-14T15:39:32;26.40;61.10
12885;DHT22;6510;51.362;7.370;2023-06-14T15:41:59;26.60;60.90
12885;DHT22;6510;51.362;7.370;2023-06-14T15:44:25;26.60;59.60
12885;DHT22;6510;51.362;7.370;2023-06-14T15:46:51;26.30;61.00
12885;DHT22;6510;51.362;7.370;2023-06-14T15:49:16;26.20;61.50
12885;DHT22;6510;51.362;7.370;2023-06-14T15:51:44;25.90;60.80
12885;DHT22;6510;51.362;7.370;2023-06-14T15:54:10;25.90;60.80
12885;DHT22;6510;51.362;7.370;2023-06-14T15:56:36;25.90;60.90
12885;DHT22;6510;51.362;7.370;2023-06-14T15:59:01;25.80;61.80